»·PEaware :: ASA451 KSEA-KMFR

ASA451 :: KSEA-KMFR

FLIGHT INFORMATION

Flight Status: Arrived
Operator:
Alaska Airlines
More flights by this operator :: More flights under this callsign
Pilot: Jesse M. (22378)
Aircraft: AIRBUS A320
(A320)
More flights by this aircraft type
Origin: KSEA Seattle-Tacoma Intl
United States
Destination: KMFR Rogue Valley Intl-Medford
United States
More flights between these airports :: More routes between these airports
Route: +HAROB6 FEPOT OED
File this flight plan on PilotEdge
Remarks: 104TH_KNIGHT / YOUTUBE
Altitude:
(Current/Filed)
30,000ft
Speed:
(Current/Filed)
450kts
Departed: 19-Dec-18 01:12 PM
Arrived: 19-Dec-18 02:09 PM
Distance/Time
Traveled:
306nm/0:56
Distance/Time
To Go:
Arrived

Flight Plot

Page will automatically refresh every two minutes.

Flight plan parsing failed; only flown route is shown


Map Options




Map Legend


Flown Route
Filed Route
Departure Airport
Arrival Airport
Navaid (VOR, NDB)
Fix

Horizontal Profiles

Position Reports

Time Latitude Longitude Heading Altitude Ground
Speed
19-Dec-18 12:43 47.446342 -122.303072 245 436ft 0kts
19-Dec-18 12:44 47.446342 -122.303072 245 436ft 0kts
19-Dec-18 12:45 47.446342 -122.303072 245 436ft 0kts
19-Dec-18 12:46 47.446342 -122.303072 245 436ft 0kts
19-Dec-18 12:47 47.446342 -122.303072 245 436ft 0kts
19-Dec-18 12:48 47.446342 -122.303072 245 436ft 0kts
19-Dec-18 12:49 47.446342 -122.303072 245 436ft 0kts
19-Dec-18 12:51 47.446342 -122.303072 245 436ft 0kts
19-Dec-18 12:52 47.446342 -122.303072 245 436ft 0kts
19-Dec-18 12:53 47.446342 -122.303072 245 436ft 0kts
19-Dec-18 12:54 47.446342 -122.303072 245 436ft 0kts
19-Dec-18 12:55 47.446342 -122.303072 245 436ft 0kts
19-Dec-18 12:56 47.446342 -122.303072 245 436ft 0kts
19-Dec-18 12:57 47.446342 -122.303072 245 436ft 0kts
19-Dec-18 12:58 47.446342 -122.303072 245 436ft 0kts
19-Dec-18 12:59 47.446342 -122.303072 245 436ft 0kts
19-Dec-18 13:00 47.446342 -122.303072 245 436ft 0kts
19-Dec-18 13:01 47.446481 -122.302635 245 436ft 2kts
19-Dec-18 13:02 47.446417 -122.302144 318 436ft 0kts
19-Dec-18 13:03 47.446417 -122.302145 318 436ft 0kts
19-Dec-18 13:04 47.446551 -122.302328 315 436ft 10kts
19-Dec-18 13:05 47.447644 -122.304736 271 436ft 0kts
19-Dec-18 13:05 47.447668 -122.305933 283 436ft 9kts
19-Dec-18 13:07 47.451218 -122.306267 1 436ft 13kts
19-Dec-18 13:08 47.455799 -122.306226 1 436ft 17kts
19-Dec-18 13:09 47.460932 -122.306163 0 436ft 19kts
19-Dec-18 13:10 47.463651 -122.306409 310 436ft 6kts
19-Dec-18 13:10 47.463155 -122.307781 177 436ft 3kts
19-Dec-18 13:12 47.426099 -122.308539 181 1921ft 172kts
19-Dec-18 13:12 47.386269 -122.310218 180 4059ft 180kts
19-Dec-18 13:13 47.334532 -122.313345 200 6349ft 200kts
19-Dec-18 13:15 47.309281 -122.414912 259 8414ft 279kts
19-Dec-18 13:15 47.308959 -122.513010 265 10758ft 296kts
19-Dec-18 13:16 47.312496 -122.644288 267 12556ft 336kts
19-Dec-18 13:17 47.313190 -122.776083 258 15364ft 323kts
19-Dec-18 13:18 47.280383 -122.902857 253 17156ft 338kts
19-Dec-18 13:19 47.243519 -123.030655 243 18963ft 352kts
19-Dec-18 13:20 47.164825 -123.127381 226 20465ft 380kts
19-Dec-18 13:21 47.073238 -123.210431 204 21818ft 416kts
19-Dec-18 13:22 46.951903 -123.210025 187 23035ft 449kts
19-Dec-18 13:23 46.832724 -123.201126 187 24155ft 454kts
19-Dec-18 13:24 46.706247 -123.192117 188 25185ft 462kts
19-Dec-18 13:25 46.577450 -123.182983 189 26186ft 467kts
19-Dec-18 13:26 46.447718 -123.173811 189 27130ft 472kts
19-Dec-18 13:27 46.316606 -123.164545 190 28216ft 471kts
19-Dec-18 13:28 46.187567 -123.155493 191 29271ft 465kts
19-Dec-18 13:29 46.058663 -123.146540 191 29303ft 464kts
19-Dec-18 13:30 45.930538 -123.137682 191 29303ft 464kts
19-Dec-18 13:31 45.805474 -123.129057 191 29302ft 464kts
19-Dec-18 13:32 45.678041 -123.120297 191 29308ft 462kts
19-Dec-18 13:33 45.550136 -123.111554 191 29270ft 462kts
19-Dec-18 13:34 45.422736 -123.102887 191 29267ft 462kts
19-Dec-18 13:35 45.294393 -123.094198 191 29283ft 461kts
19-Dec-18 13:36 45.166949 -123.085598 191 29281ft 460kts
19-Dec-18 13:37 45.039234 -123.077028 191 29269ft 460kts
19-Dec-18 13:38 44.912219 -123.068531 191 29272ft 460kts
19-Dec-18 13:39 44.788052 -123.062321 190 29298ft 458kts
19-Dec-18 13:40 44.661459 -123.051965 190 29263ft 455kts
19-Dec-18 13:41 44.535584 -123.043605 191 29255ft 455kts
19-Dec-18 13:42 44.411167 -123.035326 191 28814ft 439kts
19-Dec-18 13:43 44.290921 -123.027515 190 27841ft 432kts
19-Dec-18 13:44 44.171965 -123.019805 190 26863ft 428kts
19-Dec-18 13:45 44.053801 -123.012147 189 25890ft 424kts
19-Dec-18 13:46 43.937341 -123.004613 189 24936ft 418kts
19-Dec-18 13:47 43.827011 -122.997527 188 24022ft 414kts
19-Dec-18 13:48 43.712959 -122.990206 188 23086ft 408kts
19-Dec-18 13:49 43.600985 -122.983053 188 22168ft 402kts
19-Dec-18 13:50 43.490664 -122.976029 188 21263ft 395kts
19-Dec-18 13:51 43.382072 -122.969147 188 20343ft 390kts
19-Dec-18 13:52 43.275621 -122.962373 188 19041ft 378kts
19-Dec-18 13:53 43.175371 -122.955794 189 17370ft 330kts
19-Dec-18 13:54 43.087071 -122.950462 188 15361ft 327kts
19-Dec-18 13:55 43.000277 -122.944925 188 13747ft 294kts
19-Dec-18 13:56 42.921119 -122.942734 200 11972ft 269kts
19-Dec-18 13:57 42.855377 -122.960169 200 11494ft 233kts
19-Dec-18 13:58 42.792349 -122.977125 192 9421ft 240kts
19-Dec-18 13:59 42.725088 -122.995127 191 7483ft 243kts
19-Dec-18 14:00 42.663239 -123.011479 193 7054ft 206kts
19-Dec-18 14:01 42.610895 -122.996769 159 5955ft 170kts
19-Dec-18 14:02 42.570476 -122.975703 159 5144ft 153kts
19-Dec-18 14:03 42.531151 -122.955090 159 4347ft 151kts
19-Dec-18 14:04 42.492270 -122.934733 159 3550ft 149kts
19-Dec-18 14:05 42.453958 -122.914497 158 2763ft 147kts
19-Dec-18 14:06 42.415945 -122.894712 159 2031ft 146kts
19-Dec-18 14:07 42.378637 -122.875234 158 1325ft 130kts
19-Dec-18 14:08 42.364809 -122.867964 158 1324ft 23kts
19-Dec-18 14:09 42.364585 -122.869343 341 1324ft 1kts
19-Dec-18 14:10 42.367240 -122.870751 338 1324ft 13kts
19-Dec-18 14:11 42.369158 -122.873223 244 1324ft 7kts

Navigation Log

Ident Type
Flight plan parsing failed, navigation log unavailable